Aviation Digital Data Service (ADDS)

Output produced by METARs form (0651 UTC 28 September 2016)
found at http://www.aviationweather.gov/adds/metars/
 
KTHV 280640Z AUTO 00000KT 8SM SCT003 OVC011 11/11 A2999 RMK AO2 T01060106
KTHV 280633Z AUTO 00000KT 2 1/2SM BR BKN003 OVC011 09/09 A2999 RMK AO2 T00940094
KTHV 280629Z AUTO 00000KT 1 1/4SM BR BKN003 OVC011 09/09 A2999 RMK AO2 T00940094
KTHV 280553Z AUTO 00000KT 1/2SM FG VV003 10/10 A2998 RMK AO2 SLP154 T01000100 10183 20089 53008
KTHV 280550Z AUTO 00000KT 3/4SM BR VV003 10/10 A2998 RMK AO2
KTHV 280548Z AUTO 00000KT 2SM BR FEW003 09/09 A2998 RMK AO2
KTHV 280541Z AUTO 00000KT 4SM BR CLR 09/09 A2998 RMK AO2 T00940094
KTHV 280527Z AUTO 00000KT 2 1/2SM BR CLR 10/10 A2997 RMK AO2 VIS 1 1/2V5 T01000100
KTHV 280518Z AUTO 00000KT 2SM BR CLR 10/10 A2997 RMK AO2 T01000100
KTHV 280453Z AUTO 00000KT 7SM CLR 11/11 A2997 RMK AO2 SLP150 T01060106 402390100
KTHV 280353Z AUTO 00000KT 8SM CLR 12/12 A2996 RMK AO2 SLP148 T01220117
KTHV 280253Z AUTO 18003KT 10SM CLR 16/14 A2996 RMK AO2 SLP144 T01560139 53014
KTHV 280153Z AUTO 20003KT 10SM CLR 13/11 A2994 RMK AO2 SLP139 T01280111
KTHV 280053Z AUTO 19004KT 10SM CLR 17/11 A2992 RMK AO2 SLP134 T01720111
KTHV 272353Z AUTO 20003KT 10SM CLR 14/11 A2991 RMK AO2 SLP132 T01440106 10239 20133 53012
KTHV 272253Z AUTO 19003KT 10SM CLR 19/09 A2990 RMK AO2 SLP123 T01940094
KTHV 272153Z AUTO 20006KT 10SM CLR 23/08 A2988 RMK AO2 SLP119 T02280083
KTHV 272053Z AUTO VRB04KT 10SM CLR 23/08 A2988 RMK AO2 SLP116 T02330078 56016
KTHV 271953Z AUTO 25005KT 10SM CLR 23/08 A2989 RMK AO2 SLP119 T02330078
KTHV 271853Z AUTO 28005KT 10SM CLR 23/07 A2990 RMK AO2 SLP125 T02280072
KTHV 271753Z AUTO VRB06KT 10SM CLR 22/07 A2992 RMK AO2 SLP132 T02220067 10228 20128 56022
KTHV 271653Z AUTO 00000KT 10SM CLR 22/08 A2994 RMK AO2 SLP140 T02170083
KTHV 271553Z AUTO 00000KT 10SM CLR 21/09 A2997 RMK AO2 SLP148 T02110089
KTHV 271453Z AUTO 36005KT 10SM CLR 20/11 A2999 RMK AO2 SLP156 T02000106 50009
KTHV 271353Z AUTO 30003KT 10SM CLR 18/14 A2999 RMK AO2 SLP157 T01780144
KTHV 271253Z AUTO 27004KT 10SM CLR 16/16 A2998 RMK AO2 SLP152 T01610156
KTHV 271210Z AUTO 00000KT 3SM BR FEW002 13/13 A2997 RMK AO2 T01330133
KTHV 271203Z AUTO 00000KT 2 1/2SM BR SCT002 13/13 A2997 RMK AO2 T01330133
KTHV 271201Z AUTO 00000KT 1 3/4SM BR SCT002 13/13 A2997 RMK AO2 T01330133
KTHV 271153Z AUTO 00000KT 1/4SM FG VV002 13/13 A2996 RMK AO2 SLP147 60000 70005 T01280128 10178 20128 53007
KTHV 271053Z AUTO 00000KT 1/4SM FG VV001 15/15 A2995 RMK AO2 SLP143 T01500150
KTHV 270953Z AUTO 31003KT 1/4SM FG VV002 16/16 A2995 RMK AO2 SLP143 T01610161
KTHV 270930Z AUTO 32004KT 3/4SM BR OVC002 17/17 A2995 RMK AO2 T01670167
KTHV 270927Z AUTO 30003KT 1 1/4SM BR OVC002 17/17 A2995 RMK AO2 T01670167
KTHV 270918Z AUTO 31003KT 2SM BR OVC002 17/17 A2995 RMK AO2 T01670167
KTHV 270853Z AUTO 32003KT 3SM BR OVC002 17/17 A2994 RMK AO2 SLP139 60000 T01720172 51001
KTHV 270753Z AUTO 00000KT 4SM BR OVC004 17/17 A2994 RMK AO2 SLP139 T01720172
KTHV 270748Z AUTO 00000KT 5SM BR OVC004 17/17 A2994 RMK AO2
KTHV 270725Z AUTO 26003KT 6SM BR BKN005 OVC060 17/17 A2994 RMK AO2 T01720172
KTHV 270653Z AUTO 00000KT 7SM BKN007 OVC055 17/17 A2994 RMK AO2 RAE07 SLP138 P0000 T01720172
KTHV 270636Z AUTO 28003KT 9SM BKN008 BKN015 OVC049 17/17 A2994 RMK AO2 RAE07 P0000 T01720172
KTHV 270628Z AUTO 28004KT 10SM SCT008 BKN015 OVC049 17/17 A2994 RMK AO2 RAE07 P0000 T01720172
KTHV 270609Z AUTO 26003KT 10SM FEW009 BKN047 OVC075 18/18 A2995 RMK AO2 RAE07 P0000 T01780178
KTHV 270553Z AUTO 25003KT 7SM -RA FEW011 BKN050 OVC080 18/17 A2994 RMK AO2 RAE12B26 SLP138 P0001 60005 T01780172 10189 20172 58008
KTHV 270544Z AUTO 00000KT 7SM -RA SCT017 BKN040 OVC080 18/18 A2994 RMK AO2 RAE12B26 P0001 T01780178
KTHV 270526Z AUTO 21005KT 6SM -RA BR FEW010 OVC019 17/17 A2994 RMK AO2 RAE12B26 P0000 T01720172
KTHV 270514Z AUTO 24004KT 4SM BR BKN011 OVC023 17/17 A2995 RMK AO2 RAE12 P0000 T01720172
KTHV 270504Z AUTO 24003KT 2 1/2SM -RA BR OVC011 17/17 A2995 RMK AO2 P0000 T01720172
KTHV 270453Z AUTO 26004KT 4SM -RA BR OVC011 17/17 A2995 RMK AO2 RAE13B25 SLP142 P0004 T01720172 401890083
KTHV 270417Z AUTO VRB03KT 10SM OVC014 18/17 A2996 RMK AO2 RAE13 P0003 T01780167
KTHV 270353Z AUTO 23006G15KT 10SM -RA OVC015 18/16 A2996 RMK AO2 RAB51 SLP145 P0000 T01830156
KTHV 270253Z AUTO 16003KT 10SM OVC021 18/15 A2996 RMK AO2 SLP146 60000 T01830150 56017
KTHV 270153Z AUTO 19006KT 10SM OVC027 19/15 A2997 RMK AO2 RAE0055 SLP150 P0000 T01890150
KTHV 270116Z AUTO VRB04KT 10SM SCT027 OVC034 18/15 A2998 RMK AO2 RAE0055 P0000 T01830150
KTHV 270053Z AUTO 18007KT 140V210 10SM -RA BKN025 OVC032 18/15 A2999 RMK AO2 RAB18 SLP155 P0000 T01830150
KTHV 262353Z AUTO 19006KT 10SM OVC025 18/14 A3001 RMK AO2 SLP165 60000 T01830144 10189 20172 56004
KTHV 262253Z AUTO VRB05KT 10SM OVC025 18/15 A3002 RMK AO2 SLP165 T01780150
KTHV 262200Z AUTO VRB04KT 10SM BKN016 OVC021 18/16 A3001 RMK AO2 T01780156
KTHV 262153Z AUTO VRB04KT 10SM BKN014 OVC019 17/16 A3001 RMK AO2 SLP164 T01720161
KTHV 262053Z AUTO 00000KT 5SM BR OVC011 17/17 A3003 RMK AO2 SLP169 60000 T01720167 56016
KTHV 262003Z AUTO VRB04KT 4SM BR OVC013 17/17 A3003 RMK AO2 T01720167
KTHV 261953Z AUTO 15008G18KT 9SM OVC015 18/16 A3003 RMK AO2 RAB11E19 SLP171 P0000 T01780161
KTHV 261853Z AUTO 15007KT 10SM OVC018 18/16 A3006 RMK AO2 SLP180 T01830156